sensor_id;sensor_type;location;lat;lon;timestamp;P1;durP1;ratioP1;P2;durP2;ratioP2
41661;SDS011;27351;45.992;12.666;2024-03-17T00:01:06;31.20;;;17.03;;
41661;SDS011;27351;45.992;12.666;2024-03-17T00:03:32;31.40;;;17.48;;
41661;SDS011;27351;45.992;12.666;2024-03-17T00:05:58;33.23;;;17.93;;
41661;SDS011;27351;45.992;12.666;2024-03-17T00:08:24;31.90;;;17.92;;
41661;SDS011;27351;45.992;12.666;2024-03-17T00:10:50;30.30;;;17.73;;
41661;SDS011;27351;45.992;12.666;2024-03-17T00:13:17;33.08;;;16.33;;
41661;SDS011;27351;45.992;12.666;2024-03-17T00:15:42;29.20;;;17.90;;
41661;SDS011;27351;45.992;12.666;2024-03-17T00:18:09;31.60;;;18.98;;
41661;SDS011;27351;45.992;12.666;2024-03-17T00:20:35;32.92;;;18.40;;
41661;SDS011;27351;45.992;12.666;2024-03-17T00:23:01;32.75;;;17.73;;
41661;SDS011;27351;45.992;12.666;2024-03-17T00:25:27;33.20;;;17.98;;
41661;SDS011;27351;45.992;12.666;2024-03-17T00:27:53;32.90;;;17.05;;
41661;SDS011;27351;45.992;12.666;2024-03-17T00:30:22;31.92;;;17.80;;
41661;SDS011;27351;45.992;12.666;2024-03-17T00:32:48;32.85;;;18.95;;
41661;SDS011;27351;45.992;12.666;2024-03-17T00:35:13;32.80;;;16.75;;
41661;SDS011;27351;45.992;12.666;2024-03-17T00:37:49;31.23;;;16.95;;
41661;SDS011;27351;45.992;12.666;2024-03-17T00:40:15;32.33;;;17.33;;
41661;SDS011;27351;45.992;12.666;2024-03-17T00:42:41;29.10;;;16.27;;
41661;SDS011;27351;45.992;12.666;2024-03-17T00:45:07;28.38;;;16.25;;
41661;SDS011;27351;45.992;12.666;2024-03-17T00:47:35;27.92;;;15.80;;
41661;SDS011;27351;45.992;12.666;2024-03-17T00:50:01;29.67;;;18.10;;
41661;SDS011;27351;45.992;12.666;2024-03-17T00:52:28;31.45;;;17.80;;
41661;SDS011;27351;45.992;12.666;2024-03-17T00:54:54;27.75;;;15.75;;
41661;SDS011;27351;45.992;12.666;2024-03-17T00:57:20;25.17;;;14.32;;
41661;SDS011;27351;45.992;12.666;2024-03-17T00:59:46;30.30;;;16.58;;
41661;SDS011;27351;45.992;12.666;2024-03-17T01:02:12;30.67;;;18.08;;
41661;SDS011;27351;45.992;12.666;2024-03-17T01:04:41;31.17;;;17.45;;
41661;SDS011;27351;45.992;12.666;2024-03-17T01:07:07;32.10;;;18.10;;
41661;SDS011;27351;45.992;12.666;2024-03-17T01:09:33;26.60;;;15.97;;
41661;SDS011;27351;45.992;12.666;2024-03-17T01:11:59;29.80;;;16.90;;
41661;SDS011;27351;45.992;12.666;2024-03-17T01:14:25;32.75;;;18.45;;
41661;SDS011;27351;45.992;12.666;2024-03-17T01:16:51;31.60;;;17.75;;
41661;SDS011;27351;45.992;12.666;2024-03-17T01:19:16;32.53;;;18.23;;
41661;SDS011;27351;45.992;12.666;2024-03-17T01:21:42;34.35;;;19.08;;
41661;SDS011;27351;45.992;12.666;2024-03-17T01:24:08;32.38;;;16.85;;
41661;SDS011;27351;45.992;12.666;2024-03-17T01:26:33;35.17;;;19.67;;
41661;SDS011;27351;45.992;12.666;2024-03-17T01:28:59;38.55;;;19.77;;
41661;SDS011;27351;45.992;12.666;2024-03-17T01:31:25;38.70;;;20.73;;
41661;SDS011;27351;45.992;12.666;2024-03-17T01:33:50;33.37;;;18.33;;
41661;SDS011;27351;45.992;12.666;2024-03-17T01:36:16;30.77;;;18.57;;
41661;SDS011;27351;45.992;12.666;2024-03-17T01:38:42;32.67;;;17.70;;
41661;SDS011;27351;45.992;12.666;2024-03-17T01:41:07;34.83;;;18.10;;
41661;SDS011;27351;45.992;12.666;2024-03-17T01:43:33;34.80;;;18.97;;
41661;SDS011;27351;45.992;12.666;2024-03-17T01:45:58;36.03;;;19.67;;
41661;SDS011;27351;45.992;12.666;2024-03-17T01:48:24;45.75;;;20.17;;
41661;SDS011;27351;45.992;12.666;2024-03-17T01:50:51;36.97;;;19.47;;
41661;SDS011;27351;45.992;12.666;2024-03-17T01:53:18;33.60;;;17.95;;
41661;SDS011;27351;45.992;12.666;2024-03-17T01:55:46;30.85;;;16.92;;
41661;SDS011;27351;45.992;12.666;2024-03-17T01:58:12;32.33;;;18.27;;
41661;SDS011;27351;45.992;12.666;2024-03-17T02:00:38;35.63;;;18.08;;
41661;SDS011;27351;45.992;12.666;2024-03-17T02:03:05;33.42;;;17.58;;
41661;SDS011;27351;45.992;12.666;2024-03-17T02:05:32;31.52;;;16.80;;
41661;SDS011;27351;45.992;12.666;2024-03-17T02:07:59;32.40;;;16.85;;
41661;SDS011;27351;45.992;12.666;2024-03-17T02:10:25;29.92;;;17.00;;
41661;SDS011;27351;45.992;12.666;2024-03-17T02:12:50;31.00;;;16.67;;
41661;SDS011;27351;45.992;12.666;2024-03-17T02:15:16;30.30;;;16.47;;
41661;SDS011;27351;45.992;12.666;2024-03-17T02:17:42;31.23;;;16.63;;
41661;SDS011;27351;45.992;12.666;2024-03-17T02:20:07;31.10;;;17.43;;
41661;SDS011;27351;45.992;12.666;2024-03-17T02:22:36;30.50;;;16.67;;
41661;SDS011;27351;45.992;12.666;2024-03-17T02:25:03;29.17;;;15.10;;
41661;SDS011;27351;45.992;12.666;2024-03-17T02:27:28;31.17;;;16.20;;
41661;SDS011;27351;45.992;12.666;2024-03-17T02:29:54;27.87;;;15.67;;
41661;SDS011;27351;45.992;12.666;2024-03-17T02:32:20;31.48;;;16.40;;
41661;SDS011;27351;45.992;12.666;2024-03-17T02:34:48;32.30;;;16.63;;
41661;SDS011;27351;45.992;12.666;2024-03-17T02:37:13;30.77;;;16.27;;
41661;SDS011;27351;45.992;12.666;2024-03-17T02:39:39;28.15;;;14.20;;
41661;SDS011;27351;45.992;12.666;2024-03-17T02:42:06;27.58;;;14.90;;
41661;SDS011;27351;45.992;12.666;2024-03-17T02:44:32;26.95;;;14.65;;
41661;SDS011;27351;45.992;12.666;2024-03-17T02:46:58;25.45;;;14.10;;
41661;SDS011;27351;45.992;12.666;2024-03-17T02:49:24;28.98;;;15.70;;
41661;SDS011;27351;45.992;12.666;2024-03-17T02:51:50;28.17;;;14.95;;
41661;SDS011;27351;45.992;12.666;2024-03-17T02:54:16;26.07;;;14.27;;
41661;SDS011;27351;45.992;12.666;2024-03-17T02:56:42;31.77;;;17.10;;
41661;SDS011;27351;45.992;12.666;2024-03-17T02:59:07;27.17;;;14.45;;
41661;SDS011;27351;45.992;12.666;2024-03-17T03:01:33;30.33;;;16.50;;
41661;SDS011;27351;45.992;12.666;2024-03-17T03:04:00;29.43;;;15.33;;
41661;SDS011;27351;45.992;12.666;2024-03-17T03:06:25;28.47;;;16.03;;
41661;SDS011;27351;45.992;12.666;2024-03-17T03:08:51;21.90;;;13.27;;
41661;SDS011;27351;45.992;12.666;2024-03-17T03:11:17;26.37;;;14.87;;
41661;SDS011;27351;45.992;12.666;2024-03-17T03:13:43;25.17;;;13.67;;
41661;SDS011;27351;45.992;12.666;2024-03-17T03:16:13;27.08;;;13.30;;
41661;SDS011;27351;45.992;12.666;2024-03-17T03:18:39;24.88;;;13.25;;
41661;SDS011;27351;45.992;12.666;2024-03-17T03:21:05;26.67;;;14.50;;
41661;SDS011;27351;45.992;12.666;2024-03-17T03:23:32;27.10;;;14.65;;
41661;SDS011;27351;45.992;12.666;2024-03-17T03:25:58;27.48;;;14.40;;
41661;SDS011;27351;45.992;12.666;2024-03-17T03:28:24;29.60;;;14.80;;
41661;SDS011;27351;45.992;12.666;2024-03-17T03:30:50;27.45;;;14.55;;
41661;SDS011;27351;45.992;12.666;2024-03-17T03:33:20;27.63;;;16.48;;
41661;SDS011;27351;45.992;12.666;2024-03-17T03:35:46;30.00;;;15.98;;
41661;SDS011;27351;45.992;12.666;2024-03-17T03:38:12;28.38;;;16.13;;
41661;SDS011;27351;45.992;12.666;2024-03-17T03:40:39;28.23;;;15.93;;
41661;SDS011;27351;45.992;12.666;2024-03-17T03:43:05;29.70;;;15.07;;
41661;SDS011;27351;45.992;12.666;2024-03-17T03:45:31;30.05;;;15.48;;
41661;SDS011;27351;45.992;12.666;2024-03-17T03:47:57;26.02;;;15.05;;
41661;SDS011;27351;45.992;12.666;2024-03-17T03:50:22;28.52;;;15.02;;
41661;SDS011;27351;45.992;12.666;2024-03-17T03:52:48;28.50;;;15.02;;
41661;SDS011;27351;45.992;12.666;2024-03-17T03:55:15;26.48;;;14.82;;
41661;SDS011;27351;45.992;12.666;2024-03-17T03:57:41;28.08;;;15.77;;
41661;SDS011;27351;45.992;12.666;2024-03-17T04:00:07;25.63;;;15.90;;
41661;SDS011;27351;45.992;12.666;2024-03-17T04:02:39;27.27;;;15.57;;
41661;SDS011;27351;45.992;12.666;2024-03-17T04:05:05;24.42;;;13.98;;
41661;SDS011;27351;45.992;12.666;2024-03-17T04:07:31;30.10;;;14.98;;
41661;SDS011;27351;45.992;12.666;2024-03-17T04:09:57;26.20;;;13.63;;
41661;SDS011;27351;45.992;12.666;2024-03-17T04:12:23;25.00;;;13.87;;
41661;SDS011;27351;45.992;12.666;2024-03-17T04:14:49;24.38;;;13.95;;
41661;SDS011;27351;45.992;12.666;2024-03-17T04:17:19;25.10;;;13.57;;
41661;SDS011;27351;45.992;12.666;2024-03-17T04:19:47;22.90;;;12.32;;
41661;SDS011;27351;45.992;12.666;2024-03-17T04:22:14;23.48;;;13.27;;
41661;SDS011;27351;45.992;12.666;2024-03-17T04:24:40;25.10;;;13.67;;
41661;SDS011;27351;45.992;12.666;2024-03-17T04:27:06;23.20;;;13.20;;
41661;SDS011;27351;45.992;12.666;2024-03-17T04:29:31;22.27;;;11.45;;
41661;SDS011;27351;45.992;12.666;2024-03-17T04:31:57;22.90;;;12.90;;
41661;SDS011;27351;45.992;12.666;2024-03-17T04:34:23;24.97;;;12.80;;
41661;SDS011;27351;45.992;12.666;2024-03-17T04:36:48;26.07;;;13.70;;
41661;SDS011;27351;45.992;12.666;2024-03-17T04:39:14;24.52;;;13.10;;
41661;SDS011;27351;45.992;12.666;2024-03-17T04:41:40;23.23;;;11.65;;
41661;SDS011;27351;45.992;12.666;2024-03-17T04:44:06;28.80;;;15.60;;
41661;SDS011;27351;45.992;12.666;2024-03-17T04:46:32;21.23;;;12.07;;
41661;SDS011;27351;45.992;12.666;2024-03-17T04:48:58;24.57;;;13.90;;
41661;SDS011;27351;45.992;12.666;2024-03-17T04:51:23;26.57;;;13.60;;
41661;SDS011;27351;45.992;12.666;2024-03-17T04:53:49;25.97;;;13.20;;
41661;SDS011;27351;45.992;12.666;2024-03-17T04:56:14;22.80;;;12.70;;
41661;SDS011;27351;45.992;12.666;2024-03-17T04:58:40;23.77;;;12.50;;
41661;SDS011;27351;45.992;12.666;2024-03-17T05:01:07;23.90;;;12.00;;
41661;SDS011;27351;45.992;12.666;2024-03-17T05:03:35;22.27;;;11.97;;
41661;SDS011;27351;45.992;12.666;2024-03-17T05:06:02;23.47;;;12.37;;
41661;SDS011;27351;45.992;12.666;2024-03-17T05:08:28;25.08;;;12.57;;
41661;SDS011;27351;45.992;12.666;2024-03-17T05:11:12;24.10;;;12.27;;
41661;SDS011;27351;45.992;12.666;2024-03-17T05:13:39;26.58;;;12.55;;
41661;SDS011;27351;45.992;12.666;2024-03-17T05:16:05;26.70;;;12.35;;
41661;SDS011;27351;45.992;12.666;2024-03-17T05:18:31;26.13;;;14.07;;
41661;SDS011;27351;45.992;12.666;2024-03-17T05:21:04;23.48;;;12.50;;
41661;SDS011;27351;45.992;12.666;2024-03-17T05:23:30;22.63;;;11.38;;
41661;SDS011;27351;45.992;12.666;2024-03-17T05:25:56;26.33;;;12.57;;
41661;SDS011;27351;45.992;12.666;2024-03-17T05:28:23;25.13;;;13.32;;
41661;SDS011;27351;45.992;12.666;2024-03-17T05:30:49;21.08;;;11.93;;
41661;SDS011;27351;45.992;12.666;2024-03-17T05:33:17;19.50;;;10.90;;
41661;SDS011;27351;45.992;12.666;2024-03-17T05:36:02;23.13;;;12.25;;
41661;SDS011;27351;45.992;12.666;2024-03-17T05:38:29;28.17;;;13.77;;
41661;SDS011;27351;45.992;12.666;2024-03-17T05:41:02;27.48;;;12.70;;
41661;SDS011;27351;45.992;12.666;2024-03-17T05:43:31;28.73;;;13.75;;
41661;SDS011;27351;45.992;12.666;2024-03-17T05:46:07;26.98;;;13.98;;
41661;SDS011;27351;45.992;12.666;2024-03-17T05:48:33;25.93;;;14.13;;
41661;SDS011;27351;45.992;12.666;2024-03-17T05:51:01;28.77;;;14.02;;
41661;SDS011;27351;45.992;12.666;2024-03-17T05:53:31;28.98;;;14.75;;
41661;SDS011;27351;45.992;12.666;2024-03-17T05:55:59;29.60;;;15.50;;
41661;SDS011;27351;45.992;12.666;2024-03-17T05:58:25;24.60;;;14.23;;
41661;SDS011;27351;45.992;12.666;2024-03-17T06:00:51;26.88;;;14.02;;
41661;SDS011;27351;45.992;12.666;2024-03-17T06:03:16;25.17;;;13.20;;
41661;SDS011;27351;45.992;12.666;2024-03-17T06:05:43;27.48;;;14.25;;
41661;SDS011;27351;45.992;12.666;2024-03-17T06:08:11;26.63;;;14.13;;
41661;SDS011;27351;45.992;12.666;2024-03-17T06:10:37;30.30;;;15.45;;
41661;SDS011;27351;45.992;12.666;2024-03-17T06:13:03;27.80;;;14.77;;
41661;SDS011;27351;45.992;12.666;2024-03-17T06:15:29;28.92;;;14.70;;
41661;SDS011;27351;45.992;12.666;2024-03-17T06:17:55;27.38;;;14.65;;
41661;SDS011;27351;45.992;12.666;2024-03-17T06:20:21;26.20;;;13.70;;
41661;SDS011;27351;45.992;12.666;2024-03-17T06:22:49;28.90;;;14.70;;
41661;SDS011;27351;45.992;12.666;2024-03-17T06:25:14;33.65;;;16.40;;
41661;SDS011;27351;45.992;12.666;2024-03-17T06:27:40;29.05;;;15.27;;
41661;SDS011;27351;45.992;12.666;2024-03-17T06:30:06;27.83;;;15.38;;
41661;SDS011;27351;45.992;12.666;2024-03-17T06:32:35;27.75;;;15.52;;
41661;SDS011;27351;45.992;12.666;2024-03-17T06:35:04;28.52;;;14.32;;
41661;SDS011;27351;45.992;12.666;2024-03-17T06:37:30;31.67;;;16.40;;
41661;SDS011;27351;45.992;12.666;2024-03-17T06:39:55;29.58;;;15.68;;
41661;SDS011;27351;45.992;12.666;2024-03-17T06:42:21;30.48;;;15.52;;
41661;SDS011;27351;45.992;12.666;2024-03-17T06:44:47;32.88;;;17.15;;
41661;SDS011;27351;45.992;12.666;2024-03-17T06:47:12;34.17;;;17.75;;
41661;SDS011;27351;45.992;12.666;2024-03-17T06:49:38;31.73;;;15.73;;
41661;SDS011;27351;45.992;12.666;2024-03-17T06:52:04;27.95;;;15.75;;
41661;SDS011;27351;45.992;12.666;2024-03-17T06:54:30;27.70;;;15.30;;
41661;SDS011;27351;45.992;12.666;2024-03-17T06:56:57;26.75;;;14.98;;
41661;SDS011;27351;45.992;12.666;2024-03-17T06:59:23;26.73;;;13.90;;
41661;SDS011;27351;45.992;12.666;2024-03-17T07:01:49;26.77;;;14.53;;
41661;SDS011;27351;45.992;12.666;2024-03-17T07:04:15;25.77;;;14.63;;
41661;SDS011;27351;45.992;12.666;2024-03-17T07:06:42;24.60;;;13.60;;
41661;SDS011;27351;45.992;12.666;2024-03-17T07:09:08;25.50;;;13.40;;
41661;SDS011;27351;45.992;12.666;2024-03-17T07:11:34;22.10;;;12.10;;
41661;SDS011;27351;45.992;12.666;2024-03-17T07:13:59;25.97;;;14.07;;
41661;SDS011;27351;45.992;12.666;2024-03-17T07:16:25;22.30;;;12.87;;
41661;SDS011;27351;45.992;12.666;2024-03-17T07:18:51;25.43;;;13.10;;
41661;SDS011;27351;45.992;12.666;2024-03-17T07:21:21;24.35;;;13.07;;
41661;SDS011;27351;45.992;12.666;2024-03-17T07:23:47;24.27;;;13.03;;
41661;SDS011;27351;45.992;12.666;2024-03-17T07:26:13;24.92;;;13.45;;
41661;SDS011;27351;45.992;12.666;2024-03-17T07:28:39;26.02;;;14.10;;
41661;SDS011;27351;45.992;12.666;2024-03-17T07:31:06;24.73;;;13.90;;
41661;SDS011;27351;45.992;12.666;2024-03-17T07:33:33;35.97;;;15.45;;
41661;SDS011;27351;45.992;12.666;2024-03-17T07:35:59;26.13;;;14.27;;
41661;SDS011;27351;45.992;12.666;2024-03-17T07:38:26;25.58;;;14.23;;
41661;SDS011;27351;45.992;12.666;2024-03-17T07:43:23;26.35;;;14.30;;
41661;SDS011;27351;45.992;12.666;2024-03-17T07:45:59;24.17;;;13.38;;
41661;SDS011;27351;45.992;12.666;2024-03-17T07:48:25;26.27;;;14.90;;
41661;SDS011;27351;45.992;12.666;2024-03-17T07:50:54;28.38;;;15.38;;
41661;SDS011;27351;45.992;12.666;2024-03-17T07:53:20;26.88;;;15.00;;
41661;SDS011;27351;45.992;12.666;2024-03-17T07:55:46;26.65;;;13.85;;
41661;SDS011;27351;45.992;12.666;2024-03-17T07:58:11;29.00;;;15.00;;
41661;SDS011;27351;45.992;12.666;2024-03-17T08:00:37;28.75;;;14.43;;
41661;SDS011;27351;45.992;12.666;2024-03-17T08:03:03;27.20;;;14.60;;
41661;SDS011;27351;45.992;12.666;2024-03-17T08:05:29;26.50;;;14.57;;
41661;SDS011;27351;45.992;12.666;2024-03-17T08:07:55;24.55;;;14.63;;
41661;SDS011;27351;45.992;12.666;2024-03-17T08:10:21;24.85;;;13.27;;
41661;SDS011;27351;45.992;12.666;2024-03-17T08:12:47;24.07;;;13.77;;
41661;SDS011;27351;45.992;12.666;2024-03-17T08:15:12;24.48;;;14.50;;
41661;SDS011;27351;45.992;12.666;2024-03-17T08:17:39;27.27;;;14.10;;
41661;SDS011;27351;45.992;12.666;2024-03-17T08:20:05;25.35;;;14.85;;
41661;SDS011;27351;45.992;12.666;2024-03-17T08:22:31;26.73;;;14.38;;
41661;SDS011;27351;45.992;12.666;2024-03-17T08:24:56;26.73;;;15.23;;
41661;SDS011;27351;45.992;12.666;2024-03-17T08:27:22;25.50;;;14.27;;
41661;SDS011;27351;45.992;12.666;2024-03-17T08:29:48;26.65;;;14.57;;
41661;SDS011;27351;45.992;12.666;2024-03-17T08:32:14;30.83;;;16.85;;
41661;SDS011;27351;45.992;12.666;2024-03-17T08:34:40;27.13;;;13.88;;
41661;SDS011;27351;45.992;12.666;2024-03-17T08:37:05;24.53;;;14.50;;
41661;SDS011;27351;45.992;12.666;2024-03-17T08:39:31;26.30;;;14.57;;
41661;SDS011;27351;45.992;12.666;2024-03-17T08:41:57;27.92;;;14.70;;
41661;SDS011;27351;45.992;12.666;2024-03-17T08:44:23;28.27;;;15.63;;
41661;SDS011;27351;45.992;12.666;2024-03-17T08:46:48;26.37;;;15.67;;
41661;SDS011;27351;45.992;12.666;2024-03-17T08:49:14;26.67;;;15.37;;
41661;SDS011;27351;45.992;12.666;2024-03-17T08:51:39;28.52;;;14.88;;
41661;SDS011;27351;45.992;12.666;2024-03-17T08:54:05;25.92;;;14.10;;
41661;SDS011;27351;45.992;12.666;2024-03-17T08:56:31;26.40;;;14.98;;
41661;SDS011;27351;45.992;12.666;2024-03-17T08:58:56;24.25;;;13.88;;
41661;SDS011;27351;45.992;12.666;2024-03-17T09:01:22;27.23;;;14.97;;
41661;SDS011;27351;45.992;12.666;2024-03-17T09:03:49;28.25;;;15.00;;
41661;SDS011;27351;45.992;12.666;2024-03-17T09:06:17;28.17;;;14.23;;
41661;SDS011;27351;45.992;12.666;2024-03-17T09:08:45;27.38;;;15.05;;
41661;SDS011;27351;45.992;12.666;2024-03-17T09:11:13;28.73;;;14.77;;
41661;SDS011;27351;45.992;12.666;2024-03-17T09:13:39;26.73;;;14.52;;
41661;SDS011;27351;45.992;12.666;2024-03-17T09:16:05;26.20;;;14.00;;
41661;SDS011;27351;45.992;12.666;2024-03-17T09:18:31;22.98;;;12.90;;
41661;SDS011;27351;45.992;12.666;2024-03-17T09:21:04;24.25;;;14.05;;
41661;SDS011;27351;45.992;12.666;2024-03-17T09:23:30;28.73;;;14.93;;
41661;SDS011;27351;45.992;12.666;2024-03-17T09:26:03;24.10;;;12.85;;
41661;SDS011;27351;45.992;12.666;2024-03-17T09:28:30;23.73;;;14.10;;
41661;SDS011;27351;45.992;12.666;2024-03-17T09:30:56;29.45;;;15.43;;
41661;SDS011;27351;45.992;12.666;2024-03-17T09:33:23;25.83;;;14.32;;
41661;SDS011;27351;45.992;12.666;2024-03-17T09:35:59;27.42;;;14.40;;
41661;SDS011;27351;45.992;12.666;2024-03-17T09:38:25;25.85;;;14.43;;
41661;SDS011;27351;45.992;12.666;2024-03-17T09:40:51;29.03;;;15.50;;
41661;SDS011;27351;45.992;12.666;2024-03-17T09:43:22;31.75;;;16.17;;
41661;SDS011;27351;45.992;12.666;2024-03-17T09:45:48;27.92;;;15.50;;
41661;SDS011;27351;45.992;12.666;2024-03-17T09:48:15;29.75;;;15.52;;
41661;SDS011;27351;45.992;12.666;2024-03-17T09:50:52;30.90;;;16.35;;
41661;SDS011;27351;45.992;12.666;2024-03-17T09:53:23;33.07;;;16.80;;
41661;SDS011;27351;45.992;12.666;2024-03-17T09:55:49;31.43;;;16.07;;
41661;SDS011;27351;45.992;12.666;2024-03-17T09:58:15;32.70;;;16.93;;
41661;SDS011;27351;45.992;12.666;2024-03-17T10:00:42;29.42;;;15.93;;
41661;SDS011;27351;45.992;12.666;2024-03-17T10:03:07;32.15;;;16.67;;
41661;SDS011;27351;45.992;12.666;2024-03-17T10:05:33;27.38;;;14.63;;
41661;SDS011;27351;45.992;12.666;2024-03-17T10:07:59;27.40;;;14.52;;
41661;SDS011;27351;45.992;12.666;2024-03-17T10:10:24;27.63;;;15.43;;
41661;SDS011;27351;45.992;12.666;2024-03-17T10:12:50;25.03;;;14.50;;
41661;SDS011;27351;45.992;12.666;2024-03-17T10:15:16;29.47;;;14.30;;
41661;SDS011;27351;45.992;12.666;2024-03-17T10:17:43;26.97;;;14.00;;
41661;SDS011;27351;45.992;12.666;2024-03-17T10:20:19;25.85;;;13.65;;
41661;SDS011;27351;45.992;12.666;2024-03-17T10:25:27;26.73;;;14.55;;
41661;SDS011;27351;45.992;12.666;2024-03-17T10:27:53;25.92;;;14.10;;
41661;SDS011;27351;45.992;12.666;2024-03-17T10:30:19;26.77;;;13.93;;
41661;SDS011;27351;45.992;12.666;2024-03-17T10:32:56;26.03;;;14.70;;
41661;SDS011;27351;45.992;12.666;2024-03-17T10:35:29;25.48;;;13.50;;
41661;SDS011;27351;45.992;12.666;2024-03-17T10:38:02;24.77;;;14.13;;
41661;SDS011;27351;45.992;12.666;2024-03-17T10:40:30;22.92;;;13.32;;
41661;SDS011;27351;45.992;12.666;2024-03-17T10:42:56;24.58;;;12.52;;
41661;SDS011;27351;45.992;12.666;2024-03-17T10:45:22;21.90;;;12.30;;
41661;SDS011;27351;45.992;12.666;2024-03-17T10:47:50;23.53;;;11.73;;
41661;SDS011;27351;45.992;12.666;2024-03-17T10:50:20;26.58;;;12.80;;
41661;SDS011;27351;45.992;12.666;2024-03-17T10:52:46;20.77;;;12.00;;
41661;SDS011;27351;45.992;12.666;2024-03-17T10:55:22;23.35;;;12.52;;
41661;SDS011;27351;45.992;12.666;2024-03-17T10:57:48;22.17;;;12.23;;
41661;SDS011;27351;45.992;12.666;2024-03-17T11:00:15;22.83;;;12.40;;
41661;SDS011;27351;45.992;12.666;2024-03-17T11:02:44;24.08;;;13.05;;
41661;SDS011;27351;45.992;12.666;2024-03-17T11:05:11;23.50;;;13.43;;
41661;SDS011;27351;45.992;12.666;2024-03-17T11:07:39;23.77;;;12.60;;
41661;SDS011;27351;45.992;12.666;2024-03-17T11:10:14;21.15;;;12.07;;
41661;SDS011;27351;45.992;12.666;2024-03-17T11:12:42;22.83;;;12.70;;
41661;SDS011;27351;45.992;12.666;2024-03-17T11:20:34;24.17;;;12.82;;
41661;SDS011;27351;45.992;12.666;2024-03-17T11:23:00;24.13;;;12.63;;
41661;SDS011;27351;45.992;12.666;2024-03-17T11:27:54;24.67;;;12.50;;
41661;SDS011;27351;45.992;12.666;2024-03-17T11:33:18;23.35;;;12.80;;
41661;SDS011;27351;45.992;12.666;2024-03-17T11:35:50;21.50;;;12.65;;
41661;SDS011;27351;45.992;12.666;2024-03-17T11:43:44;23.30;;;12.52;;
41661;SDS011;27351;45.992;12.666;2024-03-17T11:46:10;20.83;;;12.25;;
41661;SDS011;27351;45.992;12.666;2024-03-17T11:48:36;21.85;;;12.40;;
41661;SDS011;27351;45.992;12.666;2024-03-17T11:51:02;23.30;;;11.65;;
41661;SDS011;27351;45.992;12.666;2024-03-17T11:53:29;22.17;;;11.93;;
41661;SDS011;27351;45.992;12.666;2024-03-17T11:55:55;20.83;;;11.87;;
41661;SDS011;27351;45.992;12.666;2024-03-17T11:58:21;26.75;;;12.70;;
41661;SDS011;27351;45.992;12.666;2024-03-17T12:00:53;25.10;;;13.40;;
41661;SDS011;27351;45.992;12.666;2024-03-17T12:03:19;21.13;;;11.23;;
41661;SDS011;27351;45.992;12.666;2024-03-17T12:05:45;23.97;;;11.90;;
41661;SDS011;27351;45.992;12.666;2024-03-17T12:08:20;21.30;;;11.80;;
41661;SDS011;27351;45.992;12.666;2024-03-17T12:10:49;24.60;;;12.13;;
41661;SDS011;27351;45.992;12.666;2024-03-17T12:13:14;23.10;;;12.27;;
41661;SDS011;27351;45.992;12.666;2024-03-17T12:15:40;21.17;;;11.57;;
41661;SDS011;27351;45.992;12.666;2024-03-17T12:18:19;19.20;;;11.13;;
41661;SDS011;27351;45.992;12.666;2024-03-17T12:20:47;18.93;;;10.60;;
41661;SDS011;27351;45.992;12.666;2024-03-17T12:23:13;22.98;;;12.07;;
41661;SDS011;27351;45.992;12.666;2024-03-17T12:25:46;24.25;;;11.95;;
41661;SDS011;27351;45.992;12.666;2024-03-17T12:28:15;21.20;;;12.25;;
41661;SDS011;27351;45.992;12.666;2024-03-17T12:30:41;20.90;;;12.02;;
41661;SDS011;27351;45.992;12.666;2024-03-17T12:33:07;23.48;;;12.27;;
41661;SDS011;27351;45.992;12.666;2024-03-17T12:35:36;22.50;;;12.60;;
41661;SDS011;27351;45.992;12.666;2024-03-17T12:38:02;21.70;;;11.35;;
41661;SDS011;27351;45.992;12.666;2024-03-17T12:40:27;21.57;;;11.73;;
41661;SDS011;27351;45.992;12.666;2024-03-17T12:42:54;21.10;;;11.93;;
41661;SDS011;27351;45.992;12.666;2024-03-17T12:45:21;22.67;;;12.33;;
41661;SDS011;27351;45.992;12.666;2024-03-17T12:47:48;21.13;;;12.23;;
41661;SDS011;27351;45.992;12.666;2024-03-17T12:50:14;23.60;;;12.57;;
41661;SDS011;27351;45.992;12.666;2024-03-17T12:52:40;20.80;;;12.10;;
41661;SDS011;27351;45.992;12.666;2024-03-17T12:55:09;22.65;;;12.30;;
41661;SDS011;27351;45.992;12.666;2024-03-17T13:00:46;21.42;;;12.30;;
41661;SDS011;27351;45.992;12.666;2024-03-17T13:03:23;22.38;;;12.77;;
41661;SDS011;27351;45.992;12.666;2024-03-17T13:05:50;20.92;;;12.48;;
41661;SDS011;27351;45.992;12.666;2024-03-17T13:08:16;22.48;;;11.85;;
41661;SDS011;27351;45.992;12.666;2024-03-17T13:10:41;23.27;;;12.87;;
41661;SDS011;27351;45.992;12.666;2024-03-17T13:13:10;21.38;;;11.88;;
41661;SDS011;27351;45.992;12.666;2024-03-17T13:15:38;23.48;;;12.43;;
41661;SDS011;27351;45.992;12.666;2024-03-17T13:18:04;24.27;;;13.25;;
41661;SDS011;27351;45.992;12.666;2024-03-17T13:20:29;22.33;;;12.13;;
41661;SDS011;27351;45.992;12.666;2024-03-17T13:22:56;21.52;;;12.07;;
41661;SDS011;27351;45.992;12.666;2024-03-17T13:25:23;22.67;;;11.93;;
41661;SDS011;27351;45.992;12.666;2024-03-17T13:27:51;23.17;;;12.55;;
41661;SDS011;27351;45.992;12.666;2024-03-17T13:30:18;25.48;;;13.70;;
41661;SDS011;27351;45.992;12.666;2024-03-17T13:32:44;22.95;;;13.05;;
41661;SDS011;27351;45.992;12.666;2024-03-17T13:35:15;23.35;;;12.90;;
41661;SDS011;27351;45.992;12.666;2024-03-17T13:37:41;24.13;;;13.63;;
41661;SDS011;27351;45.992;12.666;2024-03-17T13:40:07;23.97;;;13.07;;
41661;SDS011;27351;45.992;12.666;2024-03-17T13:42:35;23.90;;;13.57;;
41661;SDS011;27351;45.992;12.666;2024-03-17T13:45:01;24.20;;;13.48;;
41661;SDS011;27351;45.992;12.666;2024-03-17T13:47:26;24.45;;;13.40;;
41661;SDS011;27351;45.992;12.666;2024-03-17T13:49:52;23.27;;;12.70;;
41661;SDS011;27351;45.992;12.666;2024-03-17T13:52:17;24.27;;;12.80;;
41661;SDS011;27351;45.992;12.666;2024-03-17T13:54:43;25.60;;;14.02;;
41661;SDS011;27351;45.992;12.666;2024-03-17T13:57:09;24.67;;;13.48;;
41661;SDS011;27351;45.992;12.666;2024-03-17T13:59:34;23.15;;;14.00;;
41661;SDS011;27351;45.992;12.666;2024-03-17T14:02:01;26.58;;;13.38;;
41661;SDS011;27351;45.992;12.666;2024-03-17T14:04:27;24.05;;;13.07;;
41661;SDS011;27351;45.992;12.666;2024-03-17T14:06:53;24.03;;;13.60;;
41661;SDS011;27351;45.992;12.666;2024-03-17T14:09:18;24.90;;;13.07;;
41661;SDS011;27351;45.992;12.666;2024-03-17T14:11:44;25.27;;;13.68;;
41661;SDS011;27351;45.992;12.666;2024-03-17T14:14:14;25.90;;;13.38;;
41661;SDS011;27351;45.992;12.666;2024-03-17T14:16:39;23.42;;;13.05;;
41661;SDS011;27351;45.992;12.666;2024-03-17T14:19:06;27.63;;;14.40;;
41661;SDS011;27351;45.992;12.666;2024-03-17T14:21:32;25.48;;;14.07;;
41661;SDS011;27351;45.992;12.666;2024-03-17T14:23:58;23.85;;;14.55;;
41661;SDS011;27351;45.992;12.666;2024-03-17T14:26:25;26.57;;;13.17;;
41661;SDS011;27351;45.992;12.666;2024-03-17T14:28:50;24.53;;;12.97;;
41661;SDS011;27351;45.992;12.666;2024-03-17T14:31:17;22.67;;;13.50;;